createdAt,value
2018-06-18T04:00:55.389Z,81.37
2018-06-18T04:01:54.962Z,81.56
2018-06-18T04:03:48.220Z,82.57
2018-06-18T04:04:48.065Z,83.00
2018-06-18T04:06:40.822Z,83.00
2018-06-18T04:07:40.716Z,82.42
2018-06-18T04:09:33.439Z,82.81
2018-06-18T04:10:33.301Z,83.00
2018-06-18T04:12:25.982Z,82.90
2018-06-18T04:13:25.862Z,82.71
2018-06-18T04:15:18.539Z,82.86
2018-06-18T04:16:18.430Z,82.81
2018-06-18T04:18:11.136Z,82.90
2018-06-18T04:19:11.007Z,82.71
2018-06-18T04:21:03.688Z,82.52
2018-06-18T04:22:03.609Z,82.14
2018-06-18T04:23:56.297Z,81.95
2018-06-18T04:24:56.165Z,81.95
2018-06-18T04:26:48.852Z,82.42
2018-06-18T04:27:48.744Z,81.85
2018-06-18T04:29:41.434Z,82.04
2018-06-18T04:30:41.319Z,82.42
2018-06-18T04:32:34.504Z,81.95
2018-06-18T04:33:34.386Z,81.85
2018-06-18T04:35:27.579Z,82.18
2018-06-18T04:36:27.456Z,81.60
2018-06-18T04:38:20.187Z,81.51
2018-06-18T04:39:20.043Z,80.93
2018-06-18T04:41:12.731Z,80.35
2018-06-18T04:42:12.623Z,80.74
2018-06-18T04:44:05.347Z,80.35
2018-06-18T04:45:05.193Z,80.35
2018-06-18T04:46:57.883Z,79.97
2018-06-18T04:47:57.793Z,80.45
2018-06-18T04:49:50.487Z,80.26
2018-06-18T04:50:50.361Z,79.78
2018-06-18T04:52:43.036Z,80.16
2018-06-18T04:53:42.939Z,79.21
2018-06-18T04:55:35.842Z,80.26
2018-06-18T04:56:35.645Z,79.82
2018-06-18T04:58:28.387Z,80.40
2018-06-18T04:59:28.300Z,81.07
2018-06-18T05:01:21.028Z,80.30
2018-06-18T05:02:20.795Z,80.49
2018-06-18T05:04:13.514Z,79.63
2018-06-18T05:05:13.388Z,79.72
2018-06-18T05:07:06.081Z,79.63
2018-06-18T05:08:05.966Z,79.63
2018-06-18T05:09:58.740Z,79.82
2018-06-18T05:10:58.588Z,80.30
2018-06-18T05:12:51.436Z,80.30
2018-06-18T05:13:51.222Z,79.44
2018-06-18T05:15:43.907Z,79.44
2018-06-18T05:16:43.820Z,78.00
2018-06-18T05:18:36.460Z,78.86
2018-06-18T05:19:36.379Z,78.67
2018-06-18T05:21:29.067Z,78.28
2018-06-18T05:22:28.947Z,78.34
2018-06-18T05:24:21.630Z,79.21
2018-06-18T05:25:21.525Z,79.59
2018-06-18T05:27:14.734Z,79.14
2018-06-18T05:28:14.612Z,78.96
2018-06-18T05:30:07.287Z,78.28
2018-06-18T05:31:07.187Z,78.09
2018-06-18T05:32:59.896Z,77.80
2018-06-18T05:33:59.768Z,77.51
2018-06-18T05:35:52.462Z,76.56
2018-06-18T05:36:52.350Z,76.65
2018-06-18T05:38:45.055Z,76.07
2018-06-18T05:39:44.928Z,76.84
2018-06-18T05:41:37.626Z,76.94
2018-06-18T05:42:37.516Z,76.65
2018-06-18T05:44:30.864Z,76.46
2018-06-18T05:45:30.087Z,76.37
2018-06-18T05:47:23.266Z,75.92
2018-06-18T05:48:23.164Z,75.92
2018-06-18T05:50:15.875Z,75.73
2018-06-18T05:51:15.746Z,75.40
2018-06-18T05:53:08.425Z,76.02
2018-06-18T05:54:08.331Z,75.82
2018-06-18T05:56:01.036Z,74.87
2018-06-18T05:57:00.905Z,75.06
2018-06-18T05:58:53.591Z,74.10
2018-06-18T05:59:53.483Z,74.96
2018-06-18T06:01:46.194Z,74.39
2018-06-18T06:02:46.059Z,74.29
2018-06-18T06:04:38.776Z,74.19
2018-06-18T06:05:38.642Z,73.72
2018-06-18T06:07:31.341Z,73.91
2018-06-18T06:08:31.221Z,73.91
2018-06-18T06:10:23.929Z,74.68
2018-06-18T06:11:23.805Z,74.87
2018-06-18T06:13:16.491Z,75.35
2018-06-18T06:14:16.382Z,75.40
2018-06-18T06:16:09.090Z,75.54
2018-06-18T06:17:08.963Z,75.92
2018-06-18T06:19:01.677Z,75.92
2018-06-18T06:20:01.578Z,75.45
2018-06-18T06:21:55.270Z,75.92
2018-06-18T06:22:55.147Z,76.02
2018-06-18T06:24:48.374Z,76.59
2018-06-18T06:25:48.261Z,76.46
2018-06-18T06:27:40.982Z,75.92
2018-06-18T06:28:40.851Z,76.12
2018-06-18T06:30:34.036Z,76.12
2018-06-18T06:31:33.926Z,76.69
2018-06-18T06:33:26.633Z,76.88
2018-06-18T06:34:26.515Z,76.59
2018-06-18T06:36:19.225Z,76.40
2018-06-18T06:37:19.100Z,76.79
2018-06-18T06:39:11.788Z,75.82
2018-06-18T06:40:11.677Z,75.67
2018-06-18T06:42:04.533Z,75.10
2018-06-18T06:43:04.286Z,74.81
2018-06-18T06:44:56.965Z,74.81
2018-06-18T06:45:56.848Z,74.71
2018-06-18T06:47:49.550Z,74.13
2018-06-18T06:48:49.495Z,74.46
2018-06-18T06:50:42.263Z,74.46
2018-06-18T06:51:42.034Z,74.75
2018-06-18T06:53:34.744Z,73.41
2018-06-18T06:54:34.618Z,73.31
2018-06-18T06:56:27.307Z,73.02
2018-06-18T06:57:27.210Z,72.77
2018-06-18T06:59:19.917Z,72.48
2018-06-18T07:00:19.790Z,72.29
2018-06-18T07:02:12.479Z,72.09
2018-06-18T07:03:12.386Z,72.00
2018-06-18T07:05:05.077Z,72.19
2018-06-18T07:06:04.969Z,72.29
2018-06-18T07:07:57.711Z,72.73
2018-06-18T07:08:57.542Z,72.92
2018-06-18T07:10:50.292Z,72.73
2018-06-18T07:11:50.185Z,72.48
2018-06-18T07:13:42.871Z,72.44
2018-06-18T07:14:42.769Z,72.44
2018-06-18T07:16:35.470Z,72.77
2018-06-18T07:17:35.340Z,72.86
2018-06-18T07:19:28.040Z,72.29
2018-06-18T07:20:27.927Z,72.38
2018-06-18T07:22:20.636Z,72.48
2018-06-18T07:23:20.513Z,72.00
2018-06-18T07:25:13.227Z,71.61
2018-06-18T07:26:13.103Z,71.65
2018-06-18T07:28:05.798Z,70.59
2018-06-18T07:29:05.697Z,70.59
2018-06-18T07:30:58.423Z,69.18
2018-06-18T07:31:58.285Z,69.18
2018-06-18T07:33:50.971Z,67.68
2018-06-18T07:34:50.875Z,67.58
2018-06-18T07:36:43.587Z,66.62
2018-06-18T07:37:43.461Z,66.62
2018-06-18T07:39:36.155Z,68.03
2018-06-18T07:40:36.064Z,68.16
2018-06-18T07:42:28.756Z,67.55
2018-06-18T07:43:28.638Z,68.90
2018-06-18T07:45:21.358Z,70.24
2018-06-18T07:46:21.261Z,69.18
2018-06-18T07:48:13.967Z,68.60
2018-06-18T07:49:13.840Z,69.09
2018-06-18T07:51:06.541Z,68.80
2018-06-18T07:52:06.433Z,68.60
2018-06-18T07:53:59.154Z,68.60
2018-06-18T07:54:59.027Z,69.38
2018-06-18T07:56:51.713Z,69.38
2018-06-18T07:57:51.606Z,69.47
2018-06-18T07:59:44.321Z,68.84
2018-06-18T08:00:44.192Z,68.44
2018-06-18T08:02:36.898Z,66.91
2018-06-18T08:03:36.859Z,67.87
2018-06-18T08:05:29.484Z,67.68
2018-06-18T08:06:29.389Z,68.13
2018-06-18T08:08:22.094Z,68.13
2018-06-18T08:09:21.970Z,67.58
2018-06-18T08:11:14.676Z,67.87
2018-06-18T08:12:14.563Z,67.58
2018-06-18T08:14:07.274Z,68.13
2018-06-18T08:15:07.159Z,68.41
2018-06-18T08:16:59.840Z,67.65
2018-06-18T08:17:59.749Z,67.19
2018-06-18T08:19:52.475Z,67.03
2018-06-18T08:20:52.343Z,65.88
2018-06-18T08:22:45.054Z,66.20
2018-06-18T08:23:44.945Z,65.63
2018-06-18T08:25:37.626Z,66.07
2018-06-18T08:26:37.522Z,65.33
2018-06-18T08:28:30.226Z,64.47
2018-06-18T08:29:30.119Z,64.66
2018-06-18T08:31:22.798Z,64.37
2018-06-18T08:32:22.737Z,65.33
2018-06-18T08:34:15.421Z,64.47
2018-06-18T08:35:15.339Z,64.40
2018-06-18T08:37:07.989Z,63.54
2018-06-18T08:38:07.887Z,63.73
2018-06-18T08:40:00.609Z,63.92
2018-06-18T08:41:00.484Z,62.60
2018-06-18T08:42:53.269Z,62.60
2018-06-18T08:43:53.092Z,61.28
2018-06-18T08:45:45.801Z,60.86
2018-06-18T08:46:45.680Z,61.54
2018-06-18T08:48:38.390Z,60.61
2018-06-18T08:49:38.281Z,59.74
2018-06-18T08:51:31.001Z,60.58
2018-06-18T08:52:30.879Z,61.54
2018-06-18T08:54:23.586Z,58.73
2018-06-18T08:55:23.484Z,57.24
2018-06-18T08:57:16.209Z,56.11
2018-06-18T08:58:16.821Z,55.99
2018-06-18T09:00:08.800Z,57.29
2018-06-18T09:01:08.688Z,58.45
2018-06-18T09:03:01.394Z,58.03
2018-06-18T09:04:01.286Z,58.77
2018-06-18T09:05:53.998Z,59.55
2018-06-18T09:06:53.876Z,59.74
2018-06-18T09:08:46.572Z,58.54
2018-06-18T09:09:46.482Z,58.93
2018-06-18T09:11:39.194Z,58.35
2018-06-18T09:12:39.079Z,58.06
2018-06-18T09:14:31.819Z,57.31
2018-06-18T09:15:31.680Z,56.76
2018-06-18T09:17:24.399Z,54.37
2018-06-18T09:18:24.284Z,53.91
2018-06-18T09:20:17.001Z,54.39
2018-06-18T09:21:16.885Z,54.57
2018-06-18T09:23:09.593Z,54.63
2018-06-18T09:24:09.489Z,55.70
2018-06-18T09:26:02.211Z,55.70
2018-06-18T09:27:02.092Z,57.29
2018-06-18T09:28:54.811Z,58.42
2018-06-18T09:29:54.710Z,59.09
2018-06-18T09:31:47.428Z,60.03
2018-06-18T09:32:47.306Z,60.51
2018-06-18T09:34:39.998Z,61.16
2018-06-18T09:35:39.928Z,61.83
2018-06-18T09:37:32.613Z,62.22
2018-06-18T09:38:32.504Z,62.70
2018-06-18T09:40:25.187Z,62.76
2018-06-18T09:41:25.088Z,62.22
2018-06-18T09:43:17.795Z,60.61
2018-06-18T09:44:17.738Z,60.38
2018-06-18T09:46:10.367Z,58.09
2018-06-18T09:47:10.274Z,57.87
2018-06-18T09:49:02.993Z,58.06
2018-06-18T09:50:02.883Z,58.35
2018-06-18T09:51:55.551Z,61.06
2018-06-18T09:52:55.464Z,61.93
2018-06-18T09:54:48.172Z,62.60
2018-06-18T09:55:48.078Z,62.96
2018-06-18T09:57:40.744Z,62.66
2018-06-18T09:58:40.645Z,63.44
2018-06-18T10:00:33.351Z,63.82
2018-06-18T10:01:33.230Z,63.54
2018-06-18T10:03:25.923Z,63.44
2018-06-18T10:04:25.830Z,63.09
2018-06-18T10:06:18.532Z,60.73
2018-06-18T10:07:18.418Z,59.22
2018-06-18T10:09:11.101Z,56.86
2018-06-18T10:10:11.064Z,56.21
2018-06-18T10:12:03.717Z,56.57
2018-06-18T10:13:03.594Z,56.76
2018-06-18T10:14:56.340Z,58.06
2018-06-18T10:15:56.200Z,59.12
2018-06-18T10:17:48.892Z,60.61
2018-06-18T10:18:48.796Z,61.86
2018-06-18T10:20:41.502Z,63.73
2018-06-18T10:21:41.393Z,64.18
2018-06-18T10:23:34.076Z,64.69
2018-06-18T10:24:33.975Z,64.11
2018-06-18T10:26:26.731Z,64.15
2018-06-18T10:27:26.580Z,64.15
2018-06-18T10:29:19.268Z,63.37
2018-06-18T10:30:19.174Z,63.95
2018-06-18T10:32:11.880Z,63.85
2018-06-18T10:33:11.759Z,62.73
2018-06-18T10:35:04.449Z,62.34
2018-06-18T10:36:04.356Z,61.86
2018-06-18T10:37:57.559Z,62.73
2018-06-18T10:38:57.449Z,61.89
2018-06-18T10:40:50.185Z,60.38
2018-06-18T10:41:50.048Z,59.70
2018-06-18T10:43:43.350Z,59.89
2018-06-18T10:44:43.224Z,59.60
2018-06-18T10:46:35.936Z,58.37
2018-06-18T10:47:35.831Z,57.92
2018-06-18T10:49:28.541Z,57.63
2018-06-18T10:50:28.432Z,56.50
2018-06-18T10:52:21.127Z,55.56
2018-06-18T10:53:21.029Z,56.11
2018-06-18T10:55:13.745Z,56.50
2018-06-18T10:56:13.648Z,56.60
2018-06-18T10:58:06.355Z,57.44
2018-06-18T10:59:06.233Z,57.63
2018-06-18T11:00:59.102Z,58.54
2018-06-18T11:01:58.830Z,60.25
2018-06-18T11:03:51.626Z,61.86
2018-06-18T11:04:51.420Z,62.25
2018-06-18T11:06:44.133Z,62.34
2018-06-18T11:07:44.025Z,62.34
2018-06-18T11:09:36.738Z,61.60
2018-06-18T11:10:36.613Z,61.12
2018-06-18T11:12:29.338Z,61.22
2018-06-18T11:13:29.279Z,61.51
2018-06-18T11:15:21.949Z,61.60
2018-06-18T11:16:21.990Z,61.02
2018-06-18T11:18:14.539Z,61.47
2018-06-18T11:19:14.459Z,61.86
2018-06-18T11:21:07.162Z,61.51
2018-06-18T11:22:07.029Z,60.86
2018-06-18T11:23:59.749Z,60.83
2018-06-18T11:24:59.619Z,60.83
2018-06-18T11:26:52.412Z,60.38
2018-06-18T11:27:52.219Z,60.18
2018-06-18T11:29:44.937Z,60.09
2018-06-18T11:30:44.822Z,59.63
2018-06-18T11:32:37.545Z,60.02
2018-06-18T11:33:37.422Z,59.63
2018-06-18T11:35:30.138Z,58.89
2018-06-18T11:36:30.006Z,58.50
2018-06-18T11:38:22.722Z,57.95
2018-06-18T11:39:22.614Z,57.76
2018-06-18T11:41:15.326Z,57.28
2018-06-18T11:42:15.238Z,57.95
2018-06-18T11:44:07.898Z,56.62
2018-06-18T11:45:07.804Z,55.66
2018-06-18T11:47:00.512Z,55.36
2018-06-18T11:48:00.436Z,55.92
2018-06-18T11:49:53.089Z,57.28
2018-06-18T11:50:52.998Z,57.44
2018-06-18T11:52:45.731Z,58.47
2018-06-18T11:53:45.610Z,59.73
2018-06-18T11:55:38.294Z,61.60
2018-06-18T11:56:38.194Z,62.37
2018-06-18T11:58:30.908Z,63.02
2018-06-18T11:59:30.790Z,62.92
2018-06-18T12:01:23.555Z,61.99
2018-06-18T12:02:23.387Z,62.57
2018-06-18T12:04:16.078Z,62.37
2018-06-18T12:05:15.980Z,62.37
2018-06-18T12:07:08.786Z,61.80
2018-06-18T12:08:08.574Z,62.18
2018-06-18T12:10:01.283Z,60.96
2018-06-18T12:11:01.181Z,60.50
2018-06-18T12:12:53.883Z,59.38
2018-06-18T12:13:53.776Z,58.04
2018-06-18T12:15:46.459Z,58.14
2018-06-18T12:16:46.421Z,58.50
2018-06-18T12:18:39.080Z,59.53
2018-06-18T12:19:38.953Z,59.28
2018-06-18T12:21:31.657Z,59.44
2018-06-18T12:22:31.556Z,60.21
2018-06-18T12:24:24.759Z,61.44
2018-06-18T12:25:24.645Z,61.80
2018-06-18T12:27:17.346Z,61.34
2018-06-18T12:28:17.241Z,61.37
2018-06-18T12:30:10.030Z,59.76
2018-06-18T12:31:09.870Z,58.98
2018-06-18T12:33:02.833Z,58.34
2018-06-18T12:34:02.473Z,58.72
2018-06-18T12:35:56.846Z,58.63
2018-06-18T12:36:55.950Z,58.63
2018-06-18T12:38:48.672Z,58.72
2018-06-18T12:39:48.583Z,60.05
2018-06-18T12:41:41.278Z,59.95
2018-06-18T12:42:41.176Z,60.92
2018-06-18T12:44:33.870Z,62.08
2018-06-18T12:45:33.762Z,62.76
2018-06-18T12:47:26.611Z,64.72
2018-06-18T12:48:26.409Z,64.85
2018-06-18T12:50:19.122Z,64.56
2018-06-18T12:51:19.005Z,64.27
2018-06-18T12:53:11.729Z,63.79
2018-06-18T12:54:11.624Z,63.92
2018-06-18T12:56:04.340Z,63.05
2018-06-18T12:57:04.220Z,63.43
2018-06-18T12:58:56.933Z,63.21
2018-06-18T12:59:56.833Z,63.02
2018-06-18T13:01:49.538Z,63.76
2018-06-18T13:02:49.422Z,64.05
2018-06-18T13:04:42.138Z,64.72
2018-06-18T13:05:42.027Z,64.69
2018-06-18T13:07:34.820Z,65.56
2018-06-18T13:08:34.627Z,66.14
2018-06-18T13:10:27.315Z,66.14
2018-06-18T13:11:27.214Z,66.43
2018-06-18T13:13:20.450Z,65.95
2018-06-18T13:14:20.335Z,65.50
2018-06-18T13:16:13.045Z,63.21
2018-06-18T13:17:12.930Z,62.92
2018-06-18T13:19:05.636Z,63.02
2018-06-18T13:20:05.517Z,62.92
2018-06-18T13:21:58.757Z,63.76
2018-06-18T13:22:58.642Z,63.95
2018-06-18T13:24:51.342Z,65.37
2018-06-18T13:25:51.219Z,65.56
2018-06-18T13:27:43.974Z,65.75
2018-06-18T13:28:43.841Z,65.75
2018-06-18T13:30:36.683Z,64.53
2018-06-18T13:31:36.429Z,65.78
2018-06-18T13:33:29.175Z,65.98
2018-06-18T13:34:29.028Z,66.91
2018-06-18T13:36:21.758Z,66.82
2018-06-18T13:37:21.682Z,67.94
2018-06-18T13:39:14.378Z,70.06
2018-06-18T13:40:14.265Z,71.80
2018-06-18T13:42:07.097Z,73.99
2018-06-18T13:43:06.860Z,75.05
2018-06-18T13:44:59.576Z,75.68
2018-06-18T13:45:59.460Z,75.68
2018-06-18T13:47:52.153Z,76.45
2018-06-18T13:48:52.058Z,76.36
2018-06-18T13:50:44.765Z,76.84
2018-06-18T13:51:44.661Z,76.50
2018-06-18T13:53:37.342Z,76.30
2018-06-18T13:54:37.241Z,77.07
2018-06-18T13:56:29.946Z,76.30
2018-06-18T13:57:29.826Z,76.26
2018-06-18T13:59:22.518Z,75.97
2018-06-18T14:00:22.422Z,76.01
2018-06-18T14:02:15.224Z,74.85
2018-06-18T14:03:15.007Z,75.82
2018-06-18T14:05:07.699Z,75.40
2018-06-18T14:06:07.598Z,75.40
2018-06-18T14:08:00.323Z,75.78
2018-06-18T14:09:00.191Z,76.45
2018-06-18T14:10:52.882Z,76.36
2018-06-18T14:11:52.775Z,76.75
2018-06-18T14:13:45.519Z,77.69
2018-06-18T14:14:45.364Z,77.30
2018-06-18T14:16:38.059Z,76.43
2018-06-18T14:17:37.960Z,76.92
2018-06-18T14:19:30.695Z,76.88
2018-06-18T14:20:30.583Z,78.09
2018-06-18T14:22:23.249Z,79.35
2018-06-18T14:23:23.145Z,78.77
2018-06-18T14:25:15.889Z,78.38
2018-06-18T14:26:15.749Z,79.35
2018-06-18T14:28:09.299Z,79.44
2018-06-18T14:29:09.201Z,78.77
2018-06-18T14:31:01.912Z,78.86
2018-06-18T14:32:01.801Z,79.00
2018-06-18T14:33:54.485Z,78.71
2018-06-18T14:34:54.388Z,77.46
2018-06-18T14:36:47.112Z,77.17
2018-06-18T14:37:46.985Z,77.26
2018-06-18T14:39:39.667Z,75.53
2018-06-18T14:40:39.574Z,74.85
2018-06-18T14:42:32.372Z,75.18
2018-06-18T14:43:32.160Z,74.79
2018-06-18T14:45:24.867Z,75.05
2018-06-18T14:46:24.751Z,74.95
2018-06-18T14:48:17.508Z,74.95
2018-06-18T14:49:17.355Z,75.05
2018-06-18T14:51:10.051Z,75.05
2018-06-18T14:52:09.926Z,74.95
2018-06-18T14:54:02.664Z,74.57
2018-06-18T14:55:02.518Z,74.95
2018-06-18T14:56:55.296Z,75.05
2018-06-18T14:57:55.113Z,75.24
2018-06-18T14:59:47.819Z,76.55
2018-06-18T15:00:47.715Z,76.07
2018-06-18T15:02:40.431Z,76.36
2018-06-18T15:03:40.308Z,77.33
2018-06-18T15:05:32.997Z,77.03
2018-06-18T15:06:32.890Z,77.76
2018-06-18T15:08:25.639Z,79.41
2018-06-18T15:09:25.572Z,80.56
2018-06-18T15:11:18.192Z,81.96
2018-06-18T15:12:18.076Z,83.07
2018-06-18T15:14:10.814Z,82.49
2018-06-18T15:15:10.676Z,82.83
2018-06-18T15:17:03.363Z,83.31
2018-06-18T15:18:03.267Z,82.06
2018-06-18T15:19:55.988Z,83.26
2018-06-18T15:20:55.910Z,82.29
2018-06-18T15:22:48.570Z,81.27
2018-06-18T15:23:48.495Z,80.69
2018-06-18T15:25:41.136Z,80.74
2018-06-18T15:26:41.077Z,80.45
2018-06-18T15:28:33.739Z,79.97
2018-06-18T15:29:33.633Z,78.91
2018-06-18T15:31:26.318Z,79.04
2018-06-18T15:32:26.248Z,77.98
2018-06-18T15:34:18.978Z,77.34
2018-06-18T15:35:18.864Z,76.18
2018-06-18T15:37:11.565Z,77.34
2018-06-18T15:38:11.529Z,76.67
2018-06-18T15:40:04.185Z,76.37
2018-06-18T15:41:04.037Z,76.09
2018-06-18T15:42:56.733Z,76.88
2018-06-18T15:43:56.730Z,77.84
2018-06-18T15:45:49.341Z,78.61
2018-06-18T15:46:49.229Z,78.03
2018-06-18T15:48:41.934Z,77.65
2018-06-18T15:49:41.877Z,77.84
2018-06-18T15:51:34.502Z,77.94
2018-06-18T15:52:34.476Z,77.01
2018-06-18T15:54:27.120Z,76.01
2018-06-18T15:55:26.998Z,76.63
2018-06-18T15:57:19.782Z,77.55
2018-06-18T15:58:19.636Z,77.75
2018-06-18T16:00:12.358Z,78.42
2018-06-18T16:01:12.244Z,78.91
2018-06-18T16:03:04.924Z,79.58
2018-06-18T16:04:04.831Z,79.19
2018-06-18T16:05:57.544Z,79.64
2018-06-18T16:06:57.419Z,79.25
2018-06-18T16:08:50.127Z,79.29
2018-06-18T16:09:50.014Z,79.25
2018-06-18T16:11:42.722Z,78.42
2018-06-18T16:12:42.614Z,78.96
2018-06-18T16:14:35.313Z,79.25
2018-06-18T16:15:35.204Z,79.54
2018-06-18T16:17:27.887Z,80.89
2018-06-18T16:18:27.792Z,80.56
2018-06-18T16:20:20.495Z,80.46
2018-06-18T16:21:20.379Z,80.69
2018-06-18T16:23:13.070Z,81.43
2018-06-18T16:24:12.965Z,81.81
2018-06-18T16:26:05.680Z,83.36
2018-06-18T16:27:05.556Z,84.42
2018-06-18T16:28:58.242Z,84.80
2018-06-18T16:29:58.143Z,86.25
2018-06-18T16:31:50.860Z,86.49
2018-06-18T16:32:50.734Z,87.46
2018-06-18T16:34:43.450Z,87.36
2018-06-18T16:35:43.340Z,86.82
2018-06-18T16:37:36.353Z,86.35
2018-06-18T16:38:35.940Z,85.96
2018-06-18T16:40:28.622Z,85.03
2018-06-18T16:41:28.512Z,84.84
2018-06-18T16:43:21.212Z,84.55
2018-06-18T16:44:21.100Z,84.65
2018-06-18T16:46:13.791Z,85.42
2018-06-18T16:47:13.690Z,85.71
2018-06-18T16:49:06.405Z,84.55
2018-06-18T16:50:06.289Z,83.20
2018-06-18T16:51:58.978Z,84.84
2018-06-18T16:52:58.886Z,84.27
2018-06-18T16:54:51.741Z,84.65
2018-06-18T16:55:51.491Z,83.88
2018-06-18T16:57:44.188Z,85.03
2018-06-18T16:58:44.071Z,85.09
2018-06-18T17:00:36.787Z,84.65
2018-06-18T17:01:36.643Z,84.55
2018-06-18T17:03:29.470Z,84.46
2018-06-18T17:04:29.246Z,84.46
2018-06-18T17:06:21.942Z,84.22
2018-06-18T17:07:21.835Z,84.61
2018-06-18T17:09:14.575Z,84.61
2018-06-18T17:10:14.470Z,83.94
2018-06-18T17:12:07.799Z,82.43
2018-06-18T17:13:07.050Z,83.11
2018-06-18T17:14:59.789Z,82.53
2018-06-18T17:15:59.649Z,82.38
2018-06-18T17:17:52.355Z,81.32
2018-06-18T17:18:52.245Z,80.74
2018-06-18T17:20:44.963Z,80.83
2018-06-18T17:21:44.841Z,79.29
2018-06-18T17:23:37.531Z,80.54
2018-06-18T17:24:37.436Z,79.87
2018-06-18T17:26:30.143Z,79.72
2018-06-18T17:27:30.024Z,78.46
2018-06-18T17:29:22.762Z,79.33
2018-06-18T17:30:22.609Z,78.75
2018-06-18T17:32:15.343Z,78.27
2018-06-18T17:33:15.219Z,79.29
2018-06-18T17:35:07.897Z,79.29
2018-06-18T17:36:07.785Z,79.68
2018-06-18T17:38:00.672Z,78.91
2018-06-18T17:39:00.395Z,79.49
2018-06-18T17:40:53.095Z,79.74
2018-06-18T17:41:52.992Z,79.39
2018-06-18T17:43:45.712Z,79.77
2018-06-18T17:44:45.594Z,79.77
2018-06-18T17:46:38.293Z,79.54
2018-06-18T17:47:38.203Z,79.39
2018-06-18T17:49:30.921Z,78.77
2018-06-18T17:50:30.780Z,78.48
2018-06-18T17:52:23.542Z,78.19
2018-06-18T17:53:23.365Z,77.71
2018-06-18T17:55:16.062Z,78.09
2018-06-18T17:56:15.974Z,78.38
2018-06-18T17:58:08.675Z,78.13
2018-06-18T17:59:08.557Z,77.75
2018-06-18T18:01:01.243Z,78.00
2018-06-18T18:02:01.136Z,78.48
2018-06-18T18:03:53.855Z,78.29
2018-06-18T18:04:53.733Z,78.29
2018-06-18T18:06:46.421Z,77.55
2018-06-18T18:07:46.329Z,77.26
2018-06-18T18:09:39.041Z,77.51
2018-06-18T18:10:38.913Z,77.71
2018-06-18T18:12:31.620Z,77.71
2018-06-18T18:13:31.523Z,77.26
2018-06-18T18:15:24.325Z,77.90
2018-06-18T18:16:24.178Z,77.42
2018-06-18T18:18:16.966Z,77.71
2018-06-18T18:19:16.766Z,78.38
2018-06-18T18:21:09.451Z,79.35
2018-06-18T18:22:09.372Z,79.06
2018-06-18T18:24:02.063Z,78.73
2018-06-18T18:25:01.966Z,79.89
2018-06-18T18:26:54.638Z,79.64
2018-06-18T18:27:54.540Z,79.79
2018-06-18T18:29:47.295Z,79.25
2018-06-18T18:30:47.145Z,78.86
2018-06-18T18:32:39.836Z,78.96
2018-06-18T18:33:39.739Z,79.25
2018-06-18T18:35:32.515Z,79.11
2018-06-18T18:36:32.382Z,79.21
2018-06-18T18:38:25.076Z,79.69
2018-06-18T18:39:25.052Z,79.41
2018-06-18T18:41:17.690Z,79.41
2018-06-18T18:42:17.579Z,79.60
2018-06-18T18:44:10.292Z,79.69
2018-06-18T18:45:10.160Z,79.98
2018-06-18T18:47:02.911Z,79.98
2018-06-18T18:48:02.793Z,79.98
2018-06-18T18:49:55.476Z,80.27
2018-06-18T18:50:55.372Z,80.08
2018-06-18T18:52:48.074Z,79.98
2018-06-18T18:53:47.968Z,80.08
2018-06-18T18:55:40.703Z,79.79
2018-06-18T18:56:40.556Z,79.79
2018-06-18T18:58:33.413Z,80.08
2018-06-18T18:59:33.126Z,79.98
2018-06-18T19:01:25.832Z,80.43
2018-06-18T19:02:25.718Z,80.04
2018-06-18T19:04:18.560Z,80.43
2018-06-18T19:05:18.297Z,80.71
2018-06-18T19:07:11.050Z,80.71
2018-06-18T19:08:10.888Z,80.81
2018-06-18T19:10:03.569Z,80.62
2018-06-18T19:11:03.469Z,80.71
2018-06-18T19:12:56.178Z,80.43
2018-06-18T19:13:56.101Z,80.62
2018-06-18T19:15:48.773Z,80.81
2018-06-18T19:16:48.667Z,80.81
2018-06-18T19:18:41.373Z,81.39
2018-06-18T19:19:41.337Z,80.62
2018-06-18T19:21:33.966Z,81.10
2018-06-18T19:22:33.843Z,81.39
2018-06-18T19:24:26.517Z,82.64
2018-06-18T19:25:26.432Z,82.45
2018-06-18T19:27:19.142Z,82.54
2018-06-18T19:28:19.015Z,82.35
2018-06-18T19:30:11.708Z,82.45
2018-06-18T19:31:11.653Z,82.98
2018-06-18T19:33:04.676Z,83.28
2018-06-18T19:34:04.218Z,83.66
2018-06-18T19:35:56.896Z,84.14
2018-06-18T19:36:56.796Z,83.85
2018-06-18T19:38:49.548Z,83.42
2018-06-18T19:39:49.371Z,84.10
2018-06-18T19:41:42.060Z,84.29
2018-06-18T19:42:41.972Z,83.91
2018-06-18T19:44:34.678Z,84.29
2018-06-18T19:45:34.562Z,84.48
2018-06-18T19:47:27.237Z,84.48
2018-06-18T19:48:27.140Z,84.87
2018-06-18T19:50:19.846Z,84.54
2018-06-18T19:51:19.721Z,84.92
2018-06-18T19:53:12.426Z,85.40
2018-06-18T19:54:12.308Z,84.83
2018-06-18T19:56:05.522Z,85.50
2018-06-18T19:57:05.399Z,85.60
2018-06-18T19:58:58.204Z,85.31
2018-06-18T19:59:58.074Z,85.50
2018-06-18T20:01:50.791Z,85.60
2018-06-18T20:02:50.667Z,85.98
2018-06-18T20:04:43.369Z,86.04
2018-06-18T20:05:43.239Z,86.04
2018-06-18T20:07:36.097Z,85.94
2018-06-18T20:08:35.852Z,86.52
2018-06-18T20:10:28.551Z,86.80
2018-06-18T20:11:28.429Z,86.90
2018-06-18T20:13:21.109Z,86.90
2018-06-18T20:14:21.016Z,86.71
2018-06-18T20:16:13.709Z,87.09
2018-06-18T20:17:13.596Z,87.09
2018-06-18T20:19:06.281Z,86.99
2018-06-18T20:20:06.169Z,87.67
2018-06-18T20:21:58.869Z,86.80
2018-06-18T20:22:58.759Z,87.57
2018-06-18T20:24:51.485Z,87.48
2018-06-18T20:25:51.368Z,87.43
2018-06-18T20:27:44.055Z,87.43
2018-06-18T20:28:43.928Z,87.62
2018-06-18T20:30:36.664Z,87.34
2018-06-18T20:31:36.579Z,86.85
2018-06-18T20:33:29.261Z,86.95
2018-06-18T20:34:29.143Z,87.05
2018-06-18T20:36:21.824Z,86.85
2018-06-18T20:37:21.724Z,86.38
2018-06-18T20:39:14.427Z,86.18
2018-06-18T20:40:14.339Z,86.47
2018-06-18T20:42:07.061Z,86.47
2018-06-18T20:43:06.882Z,86.38
2018-06-18T20:44:59.589Z,85.99
2018-06-18T20:45:59.465Z,85.99
2018-06-18T20:47:52.185Z,85.89
2018-06-18T20:48:52.048Z,85.89
2018-06-18T20:50:44.805Z,85.80
2018-06-18T20:51:44.636Z,85.99
2018-06-18T20:53:37.366Z,85.65
2018-06-18T20:54:37.226Z,85.46
2018-06-18T20:56:29.905Z,86.22
2018-06-18T20:57:29.795Z,86.13
2018-06-18T20:59:22.518Z,86.18
2018-06-18T21:00:22.385Z,86.32
2018-06-18T21:02:15.113Z,85.99
2018-06-18T21:03:14.968Z,85.27
2018-06-18T21:05:07.717Z,85.61
2018-06-18T21:06:07.569Z,85.22
2018-06-18T21:08:00.234Z,85.61
2018-06-18T21:09:00.135Z,85.80
2018-06-18T21:10:52.841Z,85.89
2018-06-18T21:11:52.715Z,85.41
2018-06-18T21:13:45.414Z,84.94
2018-06-18T21:14:45.306Z,85.03
2018-06-18T21:16:38.026Z,84.74
2018-06-18T21:17:37.888Z,84.74
2018-06-18T21:19:30.564Z,84.36
2018-06-18T21:20:30.462Z,83.78
2018-06-18T21:22:23.206Z,84.55
2018-06-18T21:23:23.087Z,83.87
2018-06-18T21:25:15.757Z,84.26
2018-06-18T21:26:15.649Z,83.30
2018-06-18T21:28:08.394Z,83.40
2018-06-18T21:29:08.234Z,83.49
2018-06-18T21:31:00.923Z,83.11
2018-06-18T21:32:00.834Z,82.05
2018-06-18T21:33:53.610Z,81.90
2018-06-18T21:34:53.486Z,81.57
2018-06-18T21:36:46.166Z,80.51
2018-06-18T21:37:46.071Z,80.13
2018-06-18T21:39:38.794Z,79.36
2018-06-18T21:40:38.646Z,80.04
2018-06-18T21:42:31.327Z,78.88
2018-06-18T21:43:31.232Z,78.78
2018-06-18T21:45:23.943Z,78.59
2018-06-18T21:46:23.814Z,78.59
2018-06-18T21:48:16.502Z,78.21
2018-06-18T21:49:16.414Z,77.73
2018-06-18T21:51:09.256Z,78.11
2018-06-18T21:52:09.002Z,78.02
2018-06-18T21:54:01.732Z,77.40
2018-06-18T21:55:01.574Z,77.21
2018-06-18T21:56:54.266Z,77.01
2018-06-18T21:57:54.147Z,77.01
2018-06-18T21:59:46.828Z,77.01
